createdAt,value
2022-10-19T00:01:25.803Z,6.84
2022-10-19T00:04:33.557Z,6.98
2022-10-19T00:07:41.734Z,7.08
2022-10-19T00:10:45.887Z,6.91
2022-10-19T00:13:50.030Z,7.00
2022-10-19T00:16:55.830Z,7.20
2022-10-19T00:20:01.224Z,7.31
2022-10-19T00:23:05.196Z,7.20
2022-10-19T00:26:09.480Z,7.31
2022-10-19T00:29:14.893Z,6.80
2022-10-19T00:32:19.026Z,6.86
2022-10-19T00:35:28.493Z,6.82
2022-10-19T00:38:33.203Z,7.07
2022-10-19T00:41:38.172Z,7.00
2022-10-19T00:45:05.378Z,6.77
2022-10-19T00:48:11.341Z,7.07
2022-10-19T00:51:16.796Z,6.98
2022-10-19T00:54:21.084Z,6.81
2022-10-19T00:57:28.853Z,6.81
2022-10-19T01:00:34.721Z,6.94
2022-10-19T01:03:40.524Z,6.63
2022-10-19T01:06:47.477Z,6.66
2022-10-19T01:09:51.583Z,6.65
2022-10-19T01:13:15.996Z,6.66
2022-10-19T01:16:32.792Z,6.61
2022-10-19T01:20:10.939Z,6.68
2022-10-19T01:23:47.886Z,6.65
2022-10-19T01:27:15.490Z,6.71
2022-10-19T01:30:33.490Z,6.57
2022-10-19T01:33:47.105Z,6.74
2022-10-19T01:37:01.964Z,6.65
2022-10-19T01:40:12.000Z,6.45
2022-10-19T01:43:26.246Z,6.36
2022-10-19T01:46:37.727Z,6.38
2022-10-19T01:49:48.548Z,6.45
2022-10-19T01:52:56.948Z,6.16
2022-10-19T01:56:03.677Z,6.15
2022-10-19T01:59:11.248Z,6.34
2022-10-19T02:02:18.919Z,6.00
2022-10-19T02:05:28.970Z,6.25
2022-10-19T02:08:40.368Z,6.36
2022-10-19T02:11:49.049Z,5.96
2022-10-19T02:15:00.608Z,5.97
2022-10-19T02:18:07.505Z,6.03
2022-10-19T02:21:12.091Z,5.96
2022-10-19T02:24:16.623Z,6.06
2022-10-19T02:27:21.026Z,6.20
2022-10-19T02:30:24.628Z,6.38
2022-10-19T02:33:30.730Z,6.12
2022-10-19T02:36:34.294Z,5.93
2022-10-19T02:39:39.426Z,5.86
2022-10-19T02:42:47.422Z,6.18
2022-10-19T02:45:57.636Z,6.20
2022-10-19T02:49:04.987Z,6.06
2022-10-19T02:52:10.749Z,5.83
2022-10-19T02:55:14.251Z,5.82
2022-10-19T02:58:18.038Z,5.84
2022-10-19T03:01:22.539Z,5.81
2022-10-19T03:04:32.846Z,5.66
2022-10-19T03:07:37.667Z,5.91
2022-10-19T03:10:41.642Z,5.98
2022-10-19T03:13:45.415Z,6.02
2022-10-19T03:16:49.833Z,5.88
2022-10-19T03:19:54.771Z,5.79
2022-10-19T03:22:58.513Z,5.83
2022-10-19T03:26:02.224Z,6.00
2022-10-19T03:29:06.108Z,5.95
2022-10-19T03:32:10.658Z,6.08
2022-10-19T03:35:18.360Z,6.14
2022-10-19T03:38:21.909Z,6.16
2022-10-19T03:41:28.363Z,6.03
2022-10-19T03:44:33.740Z,6.08
2022-10-19T03:47:38.288Z,6.02
2022-10-19T03:50:43.593Z,6.03
2022-10-19T03:53:48.453Z,6.01
2022-10-19T03:56:53.882Z,6.09
2022-10-19T04:00:00.535Z,5.74
2022-10-19T04:03:04.165Z,5.96
2022-10-19T04:06:14.006Z,5.85
2022-10-19T04:09:21.922Z,5.69
2022-10-19T04:12:26.161Z,5.84
2022-10-19T04:15:31.523Z,5.87
2022-10-19T04:18:36.696Z,5.91
2022-10-19T04:21:43.667Z,5.99
2022-10-19T04:24:47.869Z,5.93
2022-10-19T04:27:51.491Z,6.07
2022-10-19T04:30:55.497Z,5.90
2022-10-19T04:33:59.308Z,5.88
2022-10-19T04:37:04.778Z,5.83
2022-10-19T04:40:14.230Z,5.80
2022-10-19T04:43:19.620Z,5.72
2022-10-19T04:46:23.843Z,5.74
2022-10-19T04:49:28.899Z,5.92
2022-10-19T04:52:35.603Z,5.90
2022-10-19T04:55:42.349Z,5.94
2022-10-19T04:58:46.881Z,5.92
2022-10-19T05:01:51.023Z,5.92
2022-10-19T05:04:54.466Z,5.90
2022-10-19T05:08:00.329Z,5.81
2022-10-19T05:11:05.262Z,5.67
2022-10-19T05:14:09.215Z,5.72
2022-10-19T05:17:14.284Z,5.41
2022-10-19T05:20:18.418Z,5.64
2022-10-19T05:23:24.564Z,5.51
2022-10-19T05:26:30.361Z,5.41
2022-10-19T05:29:35.122Z,5.83
2022-10-19T05:32:39.599Z,5.77
2022-10-19T05:35:44.153Z,5.75
2022-10-19T05:38:52.906Z,5.82
2022-10-19T05:41:56.653Z,5.94
2022-10-19T05:45:02.269Z,6.03
2022-10-19T05:48:06.924Z,6.22
2022-10-19T05:51:15.755Z,6.27
2022-10-19T05:54:23.752Z,5.88
2022-10-19T05:57:35.864Z,6.18
2022-10-19T06:00:39.828Z,6.16
2022-10-19T06:03:46.338Z,6.51
2022-10-19T06:06:50.301Z,6.69
2022-10-19T06:09:57.092Z,6.59
2022-10-19T06:13:01.055Z,6.87
2022-10-19T06:16:05.898Z,6.97
2022-10-19T06:19:10.451Z,7.14
2022-10-19T06:22:14.543Z,7.37
2022-10-19T06:25:20.796Z,7.47
2022-10-19T06:28:24.626Z,7.59
2022-10-19T06:31:29.326Z,7.57
2022-10-19T06:34:33.179Z,7.67
2022-10-19T06:37:37.025Z,7.82
2022-10-19T06:40:45.756Z,7.94
2022-10-19T06:43:53.951Z,8.04
2022-10-19T06:46:57.981Z,8.25
2022-10-19T06:50:01.611Z,8.25
2022-10-19T06:53:07.828Z,8.28
2022-10-19T06:56:13.200Z,8.33
2022-10-19T06:59:17.983Z,8.47
2022-10-19T07:02:25.713Z,8.56
2022-10-19T07:05:29.560Z,8.69
2022-10-19T07:08:34.971Z,8.86
2022-10-19T07:11:45.756Z,9.00
2022-10-19T07:14:51.346Z,9.08
2022-10-19T07:18:20.547Z,9.21
2022-10-19T07:21:25.328Z,9.33
2022-10-19T07:24:29.619Z,9.36
2022-10-19T07:27:40.224Z,9.48
2022-10-19T07:30:44.713Z,9.64
2022-10-19T07:33:48.883Z,9.80
2022-10-19T07:36:52.956Z,9.81
2022-10-19T07:39:59.298Z,9.92
2022-10-19T07:43:04.963Z,10.01
2022-10-19T07:46:13.292Z,10.08
2022-10-19T07:49:19.175Z,10.23
2022-10-19T07:52:23.356Z,10.34
2022-10-19T07:55:28.187Z,10.40
2022-10-19T07:58:34.488Z,10.52
2022-10-19T08:01:42.318Z,10.60
2022-10-19T08:05:00.378Z,10.70
2022-10-19T08:08:06.737Z,10.80
2022-10-19T08:11:11.959Z,10.93
2022-10-19T08:14:17.650Z,11.03
2022-10-19T08:17:22.023Z,11.08
2022-10-19T08:20:25.846Z,11.19
2022-10-19T08:23:32.329Z,11.29
2022-10-19T08:26:39.004Z,11.39
2022-10-19T08:29:44.373Z,11.49
2022-10-19T08:32:48.533Z,11.58
2022-10-19T08:35:54.074Z,11.65
2022-10-19T08:38:59.071Z,11.75
2022-10-19T08:42:05.301Z,11.91
2022-10-19T08:45:33.371Z,12.00
2022-10-19T08:48:43.083Z,12.19
2022-10-19T08:51:52.609Z,12.32
2022-10-19T08:54:59.332Z,12.43
2022-10-19T08:58:18.488Z,12.57
2022-10-19T09:01:37.731Z,12.80
2022-10-19T09:04:44.398Z,13.11
2022-10-19T09:07:56.349Z,13.46
2022-10-19T09:11:03.313Z,13.56
2022-10-19T09:14:15.752Z,13.63
2022-10-19T09:17:25.631Z,13.70
2022-10-19T09:20:35.822Z,13.73
2022-10-19T09:23:41.903Z,13.85
2022-10-19T09:26:53.585Z,14.04
2022-10-19T09:29:59.728Z,14.01
2022-10-19T09:33:15.425Z,14.01
2022-10-19T09:36:23.035Z,14.23
2022-10-19T09:39:32.564Z,14.43
2022-10-19T09:42:37.567Z,14.66
2022-10-19T09:45:51.713Z,14.57
2022-10-19T09:49:01.330Z,14.68
2022-10-19T09:52:05.517Z,14.71
2022-10-19T09:55:24.478Z,14.94
2022-10-19T09:58:33.043Z,14.82
2022-10-19T10:01:43.017Z,14.94
2022-10-19T10:04:57.838Z,14.92
2022-10-19T10:08:31.446Z,15.01
2022-10-19T10:14:57.220Z,15.05
2022-10-19T10:18:00.836Z,15.09
2022-10-19T10:21:14.864Z,15.21
2022-10-19T10:24:21.458Z,15.28
2022-10-19T10:27:34.886Z,15.31
2022-10-19T10:30:39.289Z,15.37
2022-10-19T10:33:45.566Z,15.40
2022-10-19T10:36:55.370Z,15.51
2022-10-19T10:40:03.696Z,15.52
2022-10-19T10:43:14.718Z,15.54
2022-10-19T10:46:23.966Z,15.64
2022-10-19T10:49:30.272Z,15.69
2022-10-19T10:52:37.337Z,15.71
2022-10-19T10:55:56.127Z,15.84
2022-10-19T10:59:06.277Z,15.75
2022-10-19T11:02:19.967Z,15.91
2022-10-19T11:05:27.198Z,15.97
2022-10-19T11:08:36.671Z,15.94
2022-10-19T11:11:45.969Z,15.89
2022-10-19T11:14:53.291Z,16.03
2022-10-19T11:18:09.579Z,15.97
2022-10-19T11:21:21.343Z,16.04
2022-10-19T11:24:45.082Z,15.96
2022-10-19T11:28:00.712Z,16.06
2022-10-19T11:31:16.655Z,16.13
2022-10-19T11:34:39.527Z,16.19
2022-10-19T11:38:17.938Z,16.20
2022-10-19T11:41:30.881Z,16.31
2022-10-19T11:44:48.115Z,16.29
2022-10-19T11:48:07.501Z,16.30
2022-10-19T11:51:21.798Z,16.48
2022-10-19T11:54:54.137Z,16.49
2022-10-19T11:58:09.736Z,16.49
2022-10-19T12:01:30.740Z,16.50
2022-10-19T12:04:48.648Z,16.61
2022-10-19T12:08:07.655Z,16.58
2022-10-19T12:11:28.696Z,16.60
2022-10-19T12:14:37.568Z,16.63
2022-10-19T12:17:48.464Z,16.68
2022-10-19T12:20:57.162Z,16.83
2022-10-19T12:24:05.378Z,16.85
2022-10-19T12:27:14.738Z,16.84
2022-10-19T12:30:24.977Z,16.86
2022-10-19T12:33:37.135Z,16.92
2022-10-19T12:36:51.498Z,16.93
2022-10-19T12:40:01.176Z,17.04
2022-10-19T12:43:10.906Z,17.02
2022-10-19T12:46:29.980Z,16.90
2022-10-19T12:49:49.557Z,16.97
2022-10-19T12:52:54.975Z,17.13
2022-10-19T12:56:04.968Z,17.19
2022-10-19T12:59:25.630Z,17.16
2022-10-19T13:02:34.420Z,17.22
2022-10-19T13:05:38.304Z,17.23
2022-10-19T13:08:47.998Z,17.20
2022-10-19T13:12:25.844Z,17.08
2022-10-19T13:15:54.072Z,17.13
2022-10-19T13:19:19.172Z,17.18
2022-10-19T13:22:32.547Z,17.17
2022-10-19T13:25:36.935Z,17.23
2022-10-19T13:28:54.250Z,17.11
2022-10-19T13:32:32.602Z,17.08
2022-10-19T13:35:38.779Z,17.08
2022-10-19T13:38:44.669Z,17.03
2022-10-19T13:41:54.079Z,17.00
2022-10-19T13:44:59.712Z,17.04
2022-10-19T13:48:18.350Z,17.05
2022-10-19T13:51:33.817Z,16.98
2022-10-19T13:55:04.154Z,16.99
2022-10-19T13:58:38.649Z,16.94
2022-10-19T14:01:58.560Z,16.88
2022-10-19T14:05:26.504Z,16.85
2022-10-19T14:08:56.112Z,16.91
2022-10-19T14:12:07.880Z,16.97
2022-10-19T14:15:23.496Z,16.84
2022-10-19T14:18:29.578Z,16.89
2022-10-19T14:21:52.313Z,16.87
2022-10-19T14:25:05.480Z,16.86
2022-10-19T14:28:10.452Z,16.79
2022-10-19T14:31:21.841Z,16.73
2022-10-19T14:34:50.300Z,16.78
2022-10-19T14:37:56.904Z,16.77
2022-10-19T14:41:02.808Z,16.78
2022-10-19T14:44:34.327Z,16.67
2022-10-19T14:47:38.411Z,16.76
2022-10-19T14:50:47.868Z,16.75
2022-10-19T14:57:51.003Z,16.64
2022-10-19T15:00:56.728Z,16.63
2022-10-19T15:04:00.877Z,16.64
2022-10-19T15:07:15.789Z,16.69
2022-10-19T15:10:22.080Z,16.73
2022-10-19T15:13:33.740Z,16.76
2022-10-19T15:16:49.015Z,16.75
2022-10-19T15:19:53.870Z,16.76
2022-10-19T15:22:58.740Z,16.79
2022-10-19T15:26:09.554Z,16.82
2022-10-19T15:29:24.337Z,16.76
2022-10-19T15:32:35.454Z,16.81
2022-10-19T15:35:41.452Z,16.81
2022-10-19T15:38:47.300Z,16.81
2022-10-19T15:41:51.032Z,16.81
2022-10-19T15:44:56.386Z,16.76
2022-10-19T15:48:26.456Z,16.68
2022-10-19T15:51:47.394Z,16.64
2022-10-19T15:54:51.662Z,16.69
2022-10-19T15:58:00.422Z,16.62
2022-10-19T16:01:05.478Z,16.69
2022-10-19T16:04:09.508Z,16.64
2022-10-19T16:07:20.106Z,16.60
2022-10-19T16:10:29.504Z,16.64
2022-10-19T16:13:33.032Z,16.65
2022-10-19T16:16:38.642Z,16.63
2022-10-19T16:19:42.275Z,16.61
2022-10-19T16:22:47.847Z,16.61
2022-10-19T16:25:53.389Z,16.55
2022-10-19T16:28:57.843Z,16.56
2022-10-19T16:32:04.923Z,16.49
2022-10-19T16:35:10.315Z,16.47
2022-10-19T16:38:14.059Z,16.43
2022-10-19T16:41:22.231Z,16.42
2022-10-19T16:44:25.652Z,16.38
2022-10-19T16:47:30.814Z,16.34
2022-10-19T16:50:34.841Z,16.34
2022-10-19T16:53:39.829Z,16.33
2022-10-19T16:56:46.820Z,16.33
2022-10-19T16:59:54.471Z,16.31
2022-10-19T17:02:59.377Z,16.30
2022-10-19T17:06:03.771Z,16.32
2022-10-19T17:09:40.395Z,16.30
2022-10-19T17:12:34.359Z,16.30
2022-10-19T17:15:43.006Z,16.29
2022-10-19T17:19:15.469Z,16.23
2022-10-19T17:28:11.070Z,16.23
2022-10-19T17:31:15.435Z,16.23
2022-10-19T17:34:20.483Z,16.21
2022-10-19T17:37:24.238Z,16.22
2022-10-19T17:40:27.727Z,16.20
2022-10-19T17:43:31.479Z,16.20
2022-10-19T17:46:38.531Z,16.22
2022-10-19T17:49:43.553Z,16.22
2022-10-19T17:52:47.805Z,16.21
2022-10-19T17:55:52.348Z,16.14
2022-10-19T17:58:57.353Z,16.17
2022-10-19T18:02:02.085Z,16.16
2022-10-19T18:05:09.576Z,16.14
2022-10-19T18:08:13.658Z,16.07
2022-10-19T18:11:20.320Z,16.14
2022-10-19T18:14:24.114Z,16.12
2022-10-19T18:17:28.869Z,16.09
2022-10-19T18:20:36.222Z,16.07
2022-10-19T18:23:40.977Z,16.08
2022-10-19T18:26:49.180Z,16.10
2022-10-19T18:29:53.061Z,16.10
2022-10-19T18:32:59.390Z,16.03
2022-10-19T18:36:07.772Z,16.03
2022-10-19T18:39:13.629Z,15.97
2022-10-19T18:42:18.127Z,15.84
2022-10-19T18:45:23.509Z,15.89
2022-10-19T18:48:32.753Z,15.93
2022-10-19T18:51:39.347Z,15.89
2022-10-19T18:58:31.884Z,15.71
2022-10-19T19:01:40.517Z,15.66
2022-10-19T19:04:46.817Z,15.67
2022-10-19T19:07:52.900Z,15.59
2022-10-19T19:10:57.241Z,15.56
2022-10-19T19:14:02.794Z,15.51
2022-10-19T19:17:07.395Z,15.50
2022-10-19T19:20:12.567Z,15.26
2022-10-19T19:23:31.184Z,15.13
2022-10-19T19:26:40.483Z,15.16
2022-10-19T19:29:48.072Z,15.07
2022-10-19T19:32:52.428Z,14.99
2022-10-19T19:35:56.200Z,14.96
2022-10-19T19:39:01.354Z,14.85
2022-10-19T19:42:05.525Z,14.83
2022-10-19T19:45:12.199Z,14.78
2022-10-19T19:48:17.399Z,14.74
2022-10-19T19:51:22.571Z,14.66
2022-10-19T19:54:29.259Z,14.64
2022-10-19T19:57:33.004Z,14.62
2022-10-19T20:00:40.611Z,14.53
2022-10-19T20:03:46.203Z,14.43
2022-10-19T20:06:52.801Z,14.39
2022-10-19T20:10:04.709Z,14.25
2022-10-19T20:13:09.264Z,14.10
2022-10-19T20:16:14.685Z,14.09
2022-10-19T20:19:19.391Z,14.08
2022-10-19T20:22:28.271Z,13.99
2022-10-19T20:25:40.697Z,13.92
2022-10-19T20:28:46.490Z,13.83
2022-10-19T20:31:50.842Z,13.79
2022-10-19T20:34:56.124Z,13.78
2022-10-19T20:38:01.843Z,13.68
2022-10-19T20:41:10.615Z,13.50
2022-10-19T20:44:15.886Z,13.47
2022-10-19T20:47:22.179Z,13.48
2022-10-19T20:50:26.532Z,13.46
2022-10-19T20:53:30.635Z,13.23
2022-10-19T20:56:40.435Z,13.29
2022-10-19T20:59:44.285Z,13.23
2022-10-19T21:02:50.929Z,13.20
2022-10-19T21:05:54.731Z,13.22
2022-10-19T21:08:59.434Z,13.16
2022-10-19T21:12:04.925Z,13.11
2022-10-19T21:15:20.591Z,13.09
2022-10-19T21:18:29.008Z,12.95
2022-10-19T21:21:36.268Z,12.76
2022-10-19T21:24:41.515Z,12.71
2022-10-19T21:27:49.208Z,12.64
2022-10-19T21:30:56.189Z,12.43
2022-10-19T21:34:07.223Z,12.56
2022-10-19T21:37:11.682Z,12.39
2022-10-19T21:40:15.954Z,12.42
2022-10-19T21:43:21.664Z,12.35
2022-10-19T21:46:27.608Z,12.21
2022-10-19T21:49:31.401Z,12.21
2022-10-19T21:52:35.403Z,12.27
2022-10-19T21:55:39.695Z,12.22
2022-10-19T21:58:47.715Z,12.23
2022-10-19T22:01:52.037Z,12.13
2022-10-19T22:04:58.760Z,12.30
2022-10-19T22:08:02.636Z,12.26
2022-10-19T22:11:11.442Z,12.27
2022-10-19T22:14:18.103Z,12.29
2022-10-19T22:17:21.936Z,12.25
2022-10-19T22:20:27.338Z,12.30
2022-10-19T22:23:31.323Z,12.17
2022-10-19T22:30:55.591Z,11.79
2022-10-19T22:34:00.869Z,11.91
2022-10-19T22:37:04.975Z,11.86
2022-10-19T22:40:09.847Z,12.06
2022-10-19T22:43:14.939Z,12.00
2022-10-19T22:46:20.550Z,12.04
2022-10-19T22:49:24.846Z,11.92
2022-10-19T22:52:29.642Z,11.99
2022-10-19T22:55:33.568Z,11.92
2022-10-19T22:58:37.432Z,11.90
2022-10-19T23:01:43.257Z,11.81
2022-10-19T23:04:47.416Z,11.68
2022-10-19T23:07:51.748Z,11.58
2022-10-19T23:10:55.576Z,11.33
2022-10-19T23:13:59.693Z,11.35
2022-10-19T23:17:05.226Z,11.53
2022-10-19T23:20:10.858Z,11.47
2022-10-19T23:23:14.471Z,11.58
2022-10-19T23:26:20.695Z,11.54
2022-10-19T23:29:24.744Z,11.52
2022-10-19T23:32:30.670Z,11.33
2022-10-19T23:35:34.403Z,11.39
2022-10-19T23:38:38.421Z,11.00
2022-10-19T23:41:42.755Z,10.86
2022-10-19T23:44:47.786Z,10.95
2022-10-19T23:47:53.191Z,10.96
2022-10-19T23:50:59.300Z,10.87
2022-10-19T23:54:03.307Z,10.87
2022-10-19T23:57:09.783Z,11.01
